• Join FlightAware (Why Join?)
  • Login
  • US Flag 
04:04AM EDT


 

Airport Tracker/Info


-or-


 

Live Flight TrackerFlight Track Log ✈ USC105 ✈ 07-May-2013 ✈ KBKL - KDTW

Flight Track Log - Related Links

Times and Time Zones

All times are in EDT time to prevent confusion due to time zone crossing. See the USC105 flight status page for this flight to view local times or setup timezone preferences in your user account.

Time Position Orientation Groundspeed Altitude Reporting Facility
EDT Latitude Longitude Course Direction KTS MPH feet Rate Location/Type
11:13PM 41.5228 -81.7119 309° West 126 145 1,600  Level Cleveland Center
11:14PM 41.5539 -81.7292 337° Northwest 126 145 2,800 1,200 Climbing Cleveland Center
11:15PM 41.5725 -81.7628 307° West 132 152 3,900 1,020 Climbing Cleveland Center
11:16PM 41.5886 -81.8103 294° West 146 168 4,800 960 Climbing Cleveland Center
11:17PM 41.6111 -81.8578 302° West 141 162 5,900 1,080 Climbing Cleveland Center
11:18PM 41.3946 -82.0275 236° Southwest  Level FlightAware Approximate
11:18PM 41.6314 -81.8972 305° West 147 169 6,900  Level Cleveland Center
11:19PM 41.6536 -81.9475 301° West 159 183 7,900 540 Climbing Cleveland Center
11:20PM 41.6781 -82.0122 297° West 203 234 8,000  Climbing Cleveland Center
11:21PM 41.7083 -82.0767 302° West 209 241 8,000  Level Cleveland Center
11:22PM 41.7344 -82.1469 296° West 206 237 8,000  Level Cleveland Center
11:23PM 41.7628 -82.2172 298° West 208 239 8,000  Level Cleveland Center
11:24PM 41.7911 -82.2819 300° West 209 241 8,000  Level Cleveland Center
11:25PM 41.8169 -82.3522 296° West 209 241 8,000  Level Cleveland Center
11:25PM 41.8394 -82.3919 307° West 208 239 8,000  Level Cleveland Center
11:26PM 41.8653 -82.4597 297° West 207 238 8,000  Level Cleveland Center
11:27PM 41.8933 -82.5331 297° West 202 232 8,000  Level Cleveland Center
11:29PM 41.9233 -82.6036 300° West 201 231 8,000  Level Cleveland Center
11:30PM 41.9450 -82.6769 292° West 203 234 8,000  Level Cleveland Center
11:31PM 41.9708 -82.7419 298° West 206 237 8,000  Level Cleveland Center
11:32PM 41.9944 -82.8128 294° West 203 234 8,000  Level Cleveland Center
11:33PM 42.0181 -82.8833 294° West 204 235 8,000  Level Cleveland Center
11:34PM 42.0356 -82.9567 288° West 202 232 8,000  Level Cleveland Center
11:35PM 42.0486 -83.0300 284° West 199 229 8,000  Level Cleveland Center
11:36PM 42.0658 -83.0978 289° West 197 227 8,000 -480 Level Cleveland Center
11:37PM 42.0844 -83.1936 285° West 213 245 7,000 -960 Descending Cleveland Center
11:38PM 42.1017 -83.2669 288° West 217 250 6,000 -960 Descending Cleveland Center
11:39PM 42.1167 -83.3350 287° West 216 249 5,200 -960 Descending Cleveland Center
11:40PM 42.1353 -83.4281 285° West 214 246 4,100 -720 Descending Cleveland Center
11:41PM 42.1500 -83.4989 286° West 195 224 3,700 -600 Descending Cleveland Center
11:42PM 42.1567 -83.5719 277° West 205 236 2,900 -1,020 Descending Cleveland Center
11:43PM 42.1933 -83.5989 331° Northwest 172 198 1,700 -900 Descending Cleveland Center
11:44PM 42.2236 -83.5556 47° Northeast 136 157 1,100 -600 Descending Cleveland Center